createdAt,value
2023-04-02T00:01:20.903Z,95574.13
2023-04-02T00:03:54.368Z,95572.64
2023-04-02T00:06:30.623Z,95569.49
2023-04-02T00:09:17.625Z,95571.82
2023-04-02T00:11:49.094Z,95576.79
2023-04-02T00:14:31.005Z,95573.36
2023-04-02T00:17:02.183Z,95576.83
2023-04-02T00:19:42.495Z,95576.38
2023-04-02T00:25:28.897Z,95579.83
2023-04-02T00:28:01.566Z,95580.75
2023-04-02T00:30:31.341Z,95578.39
2023-04-02T00:33:02.052Z,95579.16
2023-04-02T00:35:34.772Z,95580.25
2023-04-02T00:38:23.627Z,95583.34
2023-04-02T00:40:58.847Z,95579.59
2023-04-02T00:43:31.045Z,95584.39
2023-04-02T00:46:24.524Z,95577.86
2023-04-02T00:49:16.685Z,95580.42
2023-04-02T00:51:57.097Z,95583.13
2023-04-02T00:54:35.727Z,95585.63
2023-04-02T00:57:18.568Z,95585.92
2023-04-02T00:59:56.184Z,95587.64
2023-04-02T01:02:36.076Z,95588.52
2023-04-02T01:05:19.071Z,95584.67
2023-04-02T01:07:57.530Z,95586.89
2023-04-02T01:10:38.335Z,95588.63
2023-04-02T01:13:13.454Z,95587.38
2023-04-02T01:15:56.521Z,95585.71
2023-04-02T01:18:38.355Z,95588.73
2023-04-02T01:21:16.331Z,95590.41
2023-04-02T01:24:22.309Z,95594.04
2023-04-02T01:27:13.114Z,95595.95
2023-04-02T01:29:49.111Z,95602.16
2023-04-02T01:32:24.957Z,95603.87
2023-04-02T01:35:03.183Z,95604.68
2023-04-02T01:37:39.492Z,95608.97
2023-04-02T01:40:35.834Z,95608.71
2023-04-02T01:43:28.896Z,95607.94
2023-04-02T01:46:06.151Z,95605.02
2023-04-02T01:48:41.528Z,95606.26
2023-04-02T01:51:27.968Z,95607.48
2023-04-02T01:54:03.364Z,95608.50
2023-04-02T01:56:32.308Z,95609.31
2023-04-02T01:59:04.225Z,95608.52
2023-04-02T02:01:52.041Z,95612.98
2023-04-02T02:04:26.339Z,95612.71
2023-04-02T02:07:05.652Z,95616.72
2023-04-02T02:09:52.080Z,95621.02
2023-04-02T02:12:20.878Z,95620.16
2023-04-02T02:14:52.386Z,95621.06
2023-04-02T02:17:34.734Z,95619.78
2023-04-02T02:20:12.151Z,95621.65
2023-04-02T02:22:45.222Z,95621.84
2023-04-02T02:25:29.161Z,95626.02
2023-04-02T02:28:10.623Z,95626.44
2023-04-02T02:30:59.024Z,95626.70
2023-04-02T02:33:37.619Z,95630.35
2023-04-02T02:36:16.533Z,95628.10
2023-04-02T02:38:54.449Z,95629.15
2023-04-02T02:41:56.047Z,95631.45
2023-04-02T02:44:29.158Z,95632.29
2023-04-02T02:47:05.175Z,95633.01
2023-04-02T02:49:39.577Z,95637.61
2023-04-02T02:53:20.347Z,95636.63
2023-04-02T02:55:54.921Z,95637.12
2023-04-02T02:58:43.639Z,95640.71
2023-04-02T03:01:20.475Z,95641.10
2023-04-02T03:03:55.398Z,95640.92
2023-04-02T03:06:27.049Z,95643.89
2023-04-02T03:09:20.761Z,95644.75
2023-04-02T03:12:23.672Z,95649.77
2023-04-02T03:15:06.745Z,95649.73
2023-04-02T03:17:58.681Z,95647.48
2023-04-02T03:20:41.688Z,95651.68
2023-04-02T03:23:19.189Z,95652.85
2023-04-02T03:26:19.907Z,95654.81
2023-04-02T03:29:05.747Z,95660.66
2023-04-02T03:31:52.360Z,95658.66
2023-04-02T03:34:30.210Z,95663.20
2023-04-02T03:37:43.079Z,95665.73
2023-04-02T03:40:21.051Z,95672.65
2023-04-02T03:42:56.078Z,95675.27
2023-04-02T03:45:34.295Z,95679.19
2023-04-02T03:48:19.161Z,95679.70
2023-04-02T03:50:58.922Z,95687.48
2023-04-02T03:53:37.927Z,95688.79
2023-04-02T03:56:29.467Z,95686.98
2023-04-02T03:59:16.323Z,95690.09
2023-04-02T04:02:19.716Z,95691.50
2023-04-02T04:05:26.230Z,95692.08
2023-04-02T04:08:08.166Z,95689.47
2023-04-02T04:10:36.907Z,95692.21
2023-04-02T04:13:11.608Z,95692.05
2023-04-02T04:15:51.885Z,95693.59
2023-04-02T04:18:39.993Z,95692.44
2023-04-02T04:21:37.846Z,95700.91
2023-04-02T04:24:27.742Z,95700.60
2023-04-02T04:27:34.905Z,95705.92
2023-04-02T04:30:06.223Z,95711.35
2023-04-02T04:32:42.961Z,95709.96
2023-04-02T04:35:33.188Z,95711.11
2023-04-02T04:38:14.827Z,95712.64
2023-04-02T04:40:52.595Z,95711.47
2023-04-02T04:43:35.197Z,95713.84
2023-04-02T04:46:11.286Z,95714.36
2023-04-02T04:48:47.111Z,95717.17
2023-04-02T04:51:42.792Z,95722.53
2023-04-02T04:54:16.511Z,95722.32
2023-04-02T04:56:55.711Z,95724.26
2023-04-02T04:59:46.603Z,95726.77
2023-04-02T05:02:27.917Z,95727.81
2023-04-02T05:04:57.312Z,95730.83
2023-04-02T05:07:28.114Z,95733.16
2023-04-02T05:10:20.824Z,95738.45
2023-04-02T05:12:58.900Z,95739.50
2023-04-02T05:15:35.178Z,95745.50
2023-04-02T05:18:16.501Z,95747.39
2023-04-02T05:21:07.391Z,95748.17
2023-04-02T05:23:51.063Z,95749.42
2023-04-02T05:26:34.035Z,95751.07
2023-04-02T05:29:14.660Z,95754.69
2023-04-02T05:32:04.643Z,95756.11
2023-04-02T05:34:41.238Z,95760.81
2023-04-02T05:37:20.600Z,95762.05
2023-04-02T05:42:56.030Z,95765.21
2023-04-02T05:45:37.737Z,95761.66
2023-04-02T05:48:17.657Z,95763.14
2023-04-02T05:50:51.837Z,95765.85
2023-04-02T05:53:40.167Z,95768.86
2023-04-02T05:56:20.872Z,95769.98
2023-04-02T05:58:49.361Z,95773.80
2023-04-02T06:01:50.158Z,95775.61
2023-04-02T06:04:42.444Z,95772.92
2023-04-02T06:07:23.334Z,95783.95
2023-04-02T06:10:01.487Z,95779.65
2023-04-02T06:12:47.102Z,95784.70
2023-04-02T06:15:20.907Z,95789.51
2023-04-02T06:17:59.603Z,95790.59
2023-04-02T06:20:28.732Z,95788.55
2023-04-02T06:23:32.242Z,95790.64
2023-04-02T06:26:12.594Z,95792.98
2023-04-02T06:29:07.402Z,95794.35
2023-04-02T06:31:41.455Z,95798.10
2023-04-02T06:34:22.809Z,95802.39
2023-04-02T06:37:15.853Z,95798.80
2023-04-02T06:39:45.101Z,95801.20
2023-04-02T06:42:22.577Z,95797.14
2023-04-02T06:45:14.413Z,95796.96
2023-04-02T06:47:51.519Z,95795.67
2023-04-02T06:50:57.033Z,95801.70
2023-04-02T06:53:39.467Z,95803.09
2023-04-02T06:56:46.397Z,95806.15
2023-04-02T06:59:20.540Z,95807.73
2023-04-02T07:01:55.636Z,95805.23
2023-04-02T07:04:24.979Z,95806.27
2023-04-02T07:06:57.639Z,95808.73
2023-04-02T07:09:29.143Z,95805.49
2023-04-02T07:12:00.379Z,95805.39
2023-04-02T07:14:28.955Z,95810.41
2023-04-02T07:16:57.396Z,95812.96
2023-04-02T07:19:26.255Z,95813.06
2023-04-02T07:21:57.606Z,95821.84
2023-04-02T07:24:29.048Z,95821.48
2023-04-02T07:26:57.409Z,95822.94
2023-04-02T07:29:25.873Z,95824.11
2023-04-02T07:31:54.222Z,95829.48
2023-04-02T07:34:22.904Z,95828.98
2023-04-02T07:36:51.729Z,95835.71
2023-04-02T07:39:20.073Z,95837.19
2023-04-02T07:41:53.283Z,95836.26
2023-04-02T07:44:21.679Z,95840.12
2023-04-02T07:46:50.501Z,95837.38
2023-04-02T07:49:19.145Z,95841.78
2023-04-02T07:51:53.558Z,95843.73
2023-04-02T07:54:21.931Z,95842.80
2023-04-02T07:56:50.234Z,95839.83
2023-04-02T07:59:18.831Z,95844.98
2023-04-02T08:01:47.538Z,95843.80
2023-04-02T08:04:19.488Z,95845.70
2023-04-02T08:06:56.463Z,95854.31
2023-04-02T08:09:24.916Z,95845.73
2023-04-02T08:11:53.167Z,95847.62
2023-04-02T08:14:21.451Z,95846.48
2023-04-02T08:16:53.896Z,95844.36
2023-04-02T08:19:22.671Z,95846.39
2023-04-02T08:21:52.130Z,95847.73
2023-04-02T08:24:21.657Z,95848.20
2023-04-02T08:26:55.132Z,95850.23
2023-04-02T08:29:23.682Z,95849.25
2023-04-02T08:31:52.311Z,95851.57
2023-04-02T08:34:20.892Z,95854.06
2023-04-02T08:36:49.603Z,95850.43
2023-04-02T08:39:17.909Z,95855.16
2023-04-02T08:42:01.089Z,95857.02
2023-04-02T08:44:47.801Z,95858.36
2023-04-02T08:47:20.581Z,95857.84
2023-04-02T08:50:02.876Z,95862.34
2023-04-02T08:52:34.973Z,95862.91
2023-04-02T08:55:11.507Z,95862.62
2023-04-02T08:57:51.648Z,95866.95
2023-04-02T09:00:39.601Z,95860.47
2023-04-02T09:03:15.761Z,95868.83
2023-04-02T09:05:46.737Z,95863.65
2023-04-02T09:08:22.619Z,95864.96
2023-04-02T09:11:04.701Z,95869.05
2023-04-02T09:13:37.748Z,95869.85
2023-04-02T09:16:16.561Z,95871.73
2023-04-02T09:18:45.744Z,95879.33
2023-04-02T09:21:39.088Z,95870.02
2023-04-02T09:24:13.115Z,95870.85
2023-04-02T09:26:42.437Z,95871.23
2023-04-02T09:29:14.276Z,95870.67
2023-04-02T09:31:55.662Z,95871.48
2023-04-02T09:34:30.908Z,95874.77
2023-04-02T09:37:25.529Z,95874.34
2023-04-02T09:40:09.945Z,95873.95
2023-04-02T09:42:46.878Z,95876.55
2023-04-02T09:45:27.070Z,95873.98
2023-04-02T09:47:58.052Z,95873.15
2023-04-02T09:50:32.956Z,95876.08
2023-04-02T09:53:28.049Z,95874.83
2023-04-02T09:56:17.945Z,95876.48
2023-04-02T09:59:12.838Z,95878.82
2023-04-02T10:01:50.749Z,95877.76
2023-04-02T10:04:44.459Z,95875.88
2023-04-02T10:07:37.447Z,95880.67
2023-04-02T10:10:35.398Z,95876.42
2023-04-02T10:13:09.368Z,95882.39
2023-04-02T10:15:48.958Z,95881.16
2023-04-02T10:18:31.305Z,95882.09
2023-04-02T10:21:03.507Z,95885.27
2023-04-02T10:23:32.630Z,95883.01
2023-04-02T10:26:17.009Z,95877.59
2023-04-02T10:29:14.149Z,95879.90
2023-04-02T10:32:05.284Z,95879.77
2023-04-02T10:34:45.905Z,95878.81
2023-04-02T10:37:39.805Z,95878.04
2023-04-02T10:40:14.665Z,95877.95
2023-04-02T10:42:54.663Z,95877.10
2023-04-02T10:45:38.050Z,95877.96
2023-04-02T10:48:14.315Z,95876.08
2023-04-02T10:50:50.223Z,95875.91
2023-04-02T10:53:22.446Z,95874.64
2023-04-02T10:55:55.590Z,95876.36
2023-04-02T10:58:30.467Z,95880.37
2023-04-02T11:01:02.078Z,95877.91
2023-04-02T11:03:30.425Z,95882.55
2023-04-02T11:06:02.580Z,95876.96
2023-04-02T11:08:42.249Z,95876.66
2023-04-02T11:11:30.670Z,95877.90
2023-04-02T11:14:01.003Z,95879.08
2023-04-02T11:16:29.706Z,95877.69
2023-04-02T11:19:16.594Z,95877.62
2023-04-02T11:21:59.738Z,95887.01
2023-04-02T11:24:30.266Z,95882.73
2023-04-02T11:27:12.347Z,95884.75
2023-04-02T11:29:52.243Z,95878.95
2023-04-02T11:32:20.287Z,95882.00
2023-04-02T11:34:53.824Z,95884.96
2023-04-02T11:37:34.015Z,95882.91
2023-04-02T11:40:07.172Z,95884.23
2023-04-02T11:42:36.949Z,95884.23
2023-04-02T11:45:21.257Z,95883.25
2023-04-02T11:48:02.190Z,95886.83
2023-04-02T11:50:33.935Z,95891.89
2023-04-02T11:53:05.577Z,95895.63
2023-04-02T11:55:36.187Z,95892.20
2023-04-02T11:58:07.615Z,95897.61
2023-04-02T12:00:48.496Z,95891.27
2023-04-02T12:03:51.155Z,95892.30
2023-04-02T12:06:42.757Z,95893.75
2023-04-02T12:09:26.930Z,95891.65
2023-04-02T12:12:02.914Z,95893.70
2023-04-02T12:14:35.771Z,95895.88
2023-04-02T12:17:17.743Z,95891.48
2023-04-02T12:19:49.082Z,95901.92
2023-04-02T12:22:32.833Z,95896.30
2023-04-02T12:25:07.520Z,95891.61
2023-04-02T12:27:38.629Z,95899.73
2023-04-02T12:30:24.187Z,95897.55
2023-04-02T12:33:05.340Z,95901.80
2023-04-02T12:35:37.514Z,95898.48
2023-04-02T12:38:06.761Z,95911.23
2023-04-02T12:40:36.534Z,95908.94
2023-04-02T12:43:05.968Z,95904.61
2023-04-02T12:45:35.881Z,95901.35
2023-04-02T12:48:12.703Z,95902.09
2023-04-02T12:50:53.581Z,95898.83
2023-04-02T12:54:03.289Z,95898.48
2023-04-02T12:56:35.602Z,95905.45
2023-04-02T12:59:23.225Z,95899.08
2023-04-02T13:02:12.461Z,95894.63
2023-04-02T13:04:52.929Z,95894.53
2023-04-02T13:07:22.991Z,95892.10
2023-04-02T13:09:59.417Z,95889.41
2023-04-02T13:12:41.733Z,95892.34
2023-04-02T13:15:23.967Z,95889.77
2023-04-02T13:18:29.544Z,95895.16
2023-04-02T13:21:20.925Z,95890.40
2023-04-02T13:23:50.300Z,95898.57
2023-04-02T13:26:41.784Z,95899.23
2023-04-02T13:29:09.985Z,95898.53
2023-04-02T13:31:38.254Z,95902.55
2023-04-02T13:34:06.667Z,95907.88
2023-04-02T13:36:34.828Z,95903.39
2023-04-02T13:39:03.084Z,95898.45
2023-04-02T13:41:33.945Z,95902.55
2023-04-02T13:44:03.286Z,95904.29
2023-04-02T13:46:32.995Z,95906.05
2023-04-02T13:49:01.221Z,95913.77
2023-04-02T13:51:36.280Z,95916.88
2023-04-02T13:54:35.165Z,95920.98
2023-04-02T13:57:09.137Z,95912.20
2023-04-02T13:59:38.687Z,95910.85
2023-04-02T14:02:10.782Z,95915.69
2023-04-02T14:04:41.674Z,95912.50
2023-04-02T14:07:32.820Z,95915.27
2023-04-02T14:10:01.458Z,95912.14
2023-04-02T14:12:30.204Z,95915.71
2023-04-02T14:15:06.283Z,95916.43
2023-04-02T14:20:42.222Z,95912.15
2023-04-02T14:23:40.123Z,95914.75
2023-04-02T14:26:17.383Z,95913.34
2023-04-02T14:28:49.530Z,95918.80
2023-04-02T14:31:35.396Z,95917.02
2023-04-02T14:34:06.495Z,95915.98
2023-04-02T14:36:40.617Z,95922.02
2023-04-02T14:39:15.091Z,95915.94
2023-04-02T14:41:47.581Z,95916.34
2023-04-02T14:44:26.763Z,95915.71
2023-04-02T14:47:17.723Z,95916.68
2023-04-02T14:49:50.043Z,95915.79
2023-04-02T14:52:21.637Z,95913.20
2023-04-02T14:54:52.101Z,95912.94
2023-04-02T14:57:25.273Z,95907.23
2023-04-02T15:00:00.772Z,95908.59
2023-04-02T15:02:39.231Z,95912.45
2023-04-02T15:05:13.525Z,95916.76
2023-04-02T15:07:44.751Z,95913.99
2023-04-02T15:10:25.559Z,95914.13
2023-04-02T15:12:55.617Z,95915.34
2023-04-02T15:15:45.954Z,95916.88
2023-04-02T15:18:16.569Z,95918.95
2023-04-02T15:21:04.014Z,95911.92
2023-04-02T15:23:41.333Z,95910.92
2023-04-02T15:26:42.293Z,95917.05
2023-04-02T15:29:28.676Z,95915.10
2023-04-02T15:32:20.646Z,95911.41
2023-04-02T15:34:52.575Z,95909.98
2023-04-02T15:37:27.524Z,95911.07
2023-04-02T15:40:08.110Z,95913.77
2023-04-02T15:42:43.975Z,95917.55
2023-04-02T15:45:12.208Z,95920.13
2023-04-02T15:47:52.696Z,95921.05
2023-04-02T15:50:34.980Z,95930.20
2023-04-02T15:53:25.899Z,95931.03
2023-04-02T15:56:01.786Z,95933.70
2023-04-02T15:58:36.158Z,95944.26
2023-04-02T16:01:20.211Z,95952.33
2023-04-02T16:04:18.165Z,95953.46
2023-04-02T16:06:48.402Z,95961.86
2023-04-02T16:09:45.487Z,95967.52
2023-04-02T16:12:16.370Z,95973.17
2023-04-02T16:14:48.970Z,95969.09
2023-04-02T16:17:31.417Z,95974.13
2023-04-02T16:20:09.058Z,95976.35
2023-04-02T16:22:49.790Z,95982.39
2023-04-02T16:25:28.453Z,95980.73
2023-04-02T16:28:02.950Z,95982.98
2023-04-02T16:30:31.064Z,95983.98
2023-04-02T16:33:02.683Z,95990.54
2023-04-02T16:35:43.538Z,95989.67
2023-04-02T16:38:12.133Z,95990.83
2023-04-02T16:40:40.708Z,95993.52
2023-04-02T16:43:41.351Z,95999.73
2023-04-02T16:46:38.966Z,95997.36
2023-04-02T16:49:19.306Z,96002.67
2023-04-02T16:51:51.069Z,96004.68
2023-04-02T16:54:30.149Z,96005.42
2023-04-02T16:57:18.894Z,96012.88
2023-04-02T16:59:56.245Z,96015.49
2023-04-02T17:02:24.434Z,96022.51
2023-04-02T17:05:06.449Z,96025.45
2023-04-02T17:07:34.999Z,96028.25
2023-04-02T17:10:23.920Z,96026.97
2023-04-02T17:12:58.161Z,96027.67
2023-04-02T17:15:35.580Z,96029.20
2023-04-02T17:18:09.710Z,96033.69
2023-04-02T17:20:38.289Z,96036.77
2023-04-02T17:23:06.850Z,96038.27
2023-04-02T17:25:37.813Z,96034.29
2023-04-02T17:28:15.282Z,96037.59
2023-04-02T17:30:55.580Z,96043.23
2023-04-02T17:33:27.012Z,96043.93
2023-04-02T17:36:04.578Z,96044.58
2023-04-02T17:38:32.775Z,96045.98
2023-04-02T17:41:07.173Z,96050.58
2023-04-02T17:44:01.386Z,96047.90
2023-04-02T17:46:35.282Z,96048.99
2023-04-02T17:49:22.981Z,96052.31
2023-04-02T17:52:29.780Z,96053.41
2023-04-02T17:55:07.325Z,96055.11
2023-04-02T17:57:35.836Z,96052.61
2023-04-02T18:00:14.204Z,96055.74
2023-04-02T18:02:50.214Z,96061.52
2023-04-02T18:05:34.010Z,96064.02
2023-04-02T18:08:08.824Z,96073.48
2023-04-02T18:11:12.594Z,96080.05
2023-04-02T18:14:10.440Z,96079.48
2023-04-02T18:16:46.707Z,96086.68
2023-04-02T18:19:21.544Z,96092.48
2023-04-02T18:21:57.077Z,96097.67
2023-04-02T18:24:34.456Z,96102.14
2023-04-02T18:27:09.869Z,96105.11
2023-04-02T18:29:48.913Z,96108.08
2023-04-02T18:32:31.391Z,96108.46
2023-04-02T18:35:07.793Z,96114.98
2023-04-02T18:38:08.846Z,96112.85
2023-04-02T18:41:08.541Z,96116.30
2023-04-02T18:43:40.190Z,96119.48
2023-04-02T18:46:27.471Z,96119.50
2023-04-02T18:48:57.672Z,96117.29
2023-04-02T18:51:27.351Z,96120.89
2023-04-02T18:54:17.640Z,96122.14
2023-04-02T18:56:46.524Z,96126.05
2023-04-02T18:59:35.165Z,96125.27
2023-04-02T19:02:22.788Z,96126.09
2023-04-02T19:05:00.719Z,96130.77
2023-04-02T19:07:33.546Z,96128.23
2023-04-02T19:10:28.747Z,96130.47
2023-04-02T19:12:57.295Z,96133.91
2023-04-02T19:15:30.341Z,96130.66
2023-04-02T19:18:05.384Z,96132.20
2023-04-02T19:20:40.844Z,96132.85
2023-04-02T19:23:09.211Z,96134.59
2023-04-02T19:25:50.873Z,96137.41
2023-04-02T19:28:25.271Z,96152.63
2023-04-02T19:31:11.127Z,96165.96
2023-04-02T19:33:49.968Z,96168.07
2023-04-02T19:36:39.862Z,96174.64
2023-04-02T19:39:20.731Z,96173.17
2023-04-02T19:41:56.702Z,96174.90
2023-04-02T19:44:25.909Z,96178.78
2023-04-02T19:46:54.560Z,96174.98
2023-04-02T19:49:29.091Z,96183.05
2023-04-02T19:52:02.137Z,96187.40
2023-04-02T19:54:32.864Z,96187.48
2023-04-02T19:57:05.325Z,96190.03
2023-04-02T19:59:36.130Z,96192.86
2023-04-02T20:02:08.352Z,96196.20
2023-04-02T20:04:43.307Z,96198.37
2023-04-02T20:07:15.223Z,96201.46
2023-04-02T20:09:43.346Z,96197.17
2023-04-02T20:12:50.912Z,96203.49
2023-04-02T20:15:21.131Z,96205.30
2023-04-02T20:17:51.367Z,96210.96
2023-04-02T20:20:20.204Z,96210.94
2023-04-02T20:22:53.104Z,96207.16
2023-04-02T20:25:54.579Z,96203.64
2023-04-02T20:28:27.694Z,96196.38
2023-04-02T20:31:11.122Z,96197.98
2023-04-02T20:36:37.728Z,96196.55
2023-04-02T20:39:11.152Z,96201.45
2023-04-02T20:41:39.575Z,96201.98
2023-04-02T20:44:07.908Z,96204.75
2023-04-02T20:46:40.245Z,96207.52
2023-04-02T20:49:08.554Z,96209.36
2023-04-02T20:51:38.996Z,96211.71
2023-04-02T20:54:13.217Z,96206.27
2023-04-02T20:56:43.338Z,96207.95
2023-04-02T20:59:12.937Z,96206.45
2023-04-02T21:01:42.076Z,96209.03
2023-04-02T21:04:14.435Z,96208.73
2023-04-02T21:09:33.666Z,96210.73
2023-04-02T21:12:16.211Z,96209.90
2023-04-02T21:14:44.590Z,96211.57
2023-04-02T21:17:14.630Z,96212.77
2023-04-02T21:19:44.909Z,96208.13
2023-04-02T21:22:13.910Z,96209.35
2023-04-02T21:24:44.028Z,96206.98
2023-04-02T21:27:16.625Z,96205.66
2023-04-02T21:29:45.733Z,96202.81
2023-04-02T21:32:21.641Z,96204.27
2023-04-02T21:37:52.252Z,96204.02
2023-04-02T21:40:22.746Z,96199.55
2023-04-02T21:42:54.793Z,96198.29
2023-04-02T21:45:24.470Z,96202.09
2023-04-02T21:47:53.986Z,96205.72
2023-04-02T21:50:22.412Z,96205.39
2023-04-02T21:52:51.848Z,96201.80
2023-04-02T21:55:24.007Z,96200.05
2023-04-02T21:57:52.341Z,96199.98
2023-04-02T22:00:21.390Z,96201.02
2023-04-02T22:02:50.055Z,96198.73
2023-04-02T22:05:18.520Z,96198.80
2023-04-02T22:10:31.640Z,96199.43
2023-04-02T22:13:01.356Z,96199.38
2023-04-02T22:15:37.674Z,96200.16
2023-04-02T22:18:07.948Z,96199.59
2023-04-02T22:20:40.990Z,96200.73
2023-04-02T22:23:11.421Z,96203.20
2023-04-02T22:25:47.524Z,96200.36
2023-04-02T22:28:15.984Z,96200.61
2023-04-02T22:30:45.113Z,96204.80
2023-04-02T22:33:15.566Z,96210.33
2023-04-02T22:35:43.822Z,96209.55
2023-04-02T22:38:12.760Z,96207.23
2023-04-02T22:40:41.228Z,96216.80
2023-04-02T22:43:09.810Z,96214.45
2023-04-02T22:45:38.590Z,96213.35
2023-04-02T22:48:07.348Z,96214.62
2023-04-02T22:50:37.733Z,96212.78
2023-04-02T22:53:08.892Z,96216.50
2023-04-02T22:55:39.960Z,96216.34
2023-04-02T22:58:09.056Z,96218.50
2023-04-02T23:00:38.283Z,96216.45
2023-04-02T23:03:08.453Z,96222.45
2023-04-02T23:05:42.583Z,96224.68
2023-04-02T23:08:11.918Z,96232.42
2023-04-02T23:10:41.920Z,96238.73
2023-04-02T23:13:11.434Z,96242.55
2023-04-02T23:16:02.262Z,96246.91
2023-04-02T23:18:42.629Z,96246.17
2023-04-02T23:21:26.361Z,96247.84
2023-04-02T23:24:01.284Z,96245.87
2023-04-02T23:26:38.705Z,96249.44
2023-04-02T23:29:24.232Z,96244.51
2023-04-02T23:32:01.547Z,96244.00
2023-04-02T23:34:45.253Z,96246.27
2023-04-02T23:37:27.201Z,96250.17
2023-04-02T23:39:57.323Z,96249.10
2023-04-02T23:42:35.213Z,96250.33
2023-04-02T23:45:14.237Z,96246.97
2023-04-02T23:48:02.226Z,96250.28
2023-04-02T23:50:30.773Z,96250.13
2023-04-02T23:53:01.170Z,96252.10
2023-04-02T23:55:31.902Z,96252.88
2023-04-02T23:58:04.561Z,96254.39
